Main page
METAR-TAF:

METAR-TAF

Airports :

Ben Slimane Airport

Benslimane, Morocco

latitude: 33-39-20N, longitude: 007-13-17W, elevation: 191 m

Current weather observation

The report was made 1 hour and 7 minutes ago, at 05:00 UTC
Wind 4 kt from the East
Temperature 17°C
Humidity 100%
Pressure 1022 hPa

METAR: GMMB 240500Z AUTO 09004KT //// R32/0900N ////// 17/17 Q1022 NOSIG

Time: 07:07 (06:07 UTC)


TAF: missing

Weather observations and forecasts of more than 4000 airports (METAR and TAF reports).

The available stations are represented by yellow and red dots on the map.

Hover mouse over dot to see the name of the station.

Then click to see weather observations and forecasts.

To change the map : click on the green buttons with a black cross to zoom in, on the green button with a dash to zoom out, or on the green arrows for adjacent maps.


METAR-TAF: